Time;durP1;ratioP1;P1;durP2;ratioP2;P2;SDS_P1;SDS_P2;PMS_P1;PMS_P2;Temp;Humidity;BMP_temperature;BMP_pressure;BME280_temperature;BME280_humidity;BME280_pressure;Samples;Min_cycle;Max_cycle;Signal;HPM_P1;HPM_P2
2023/04/18 00:03:03;;;;;;;6.97;2.78;;;;;;;;;;4914812;29;20142;-66
2023/04/18 00:06:46;;;;;;;8.82;2.50;;;;;;;;;;4913904;28;20411;-66
2023/04/18 00:10:25;;;;;;;7.70;2.88;;;;;;;;;;4914348;28;20066;-67
2023/04/18 00:14:06;;;;;;;8.50;2.78;;;;;;;;;;4915208;28;20521;-68
2023/04/18 00:17:47;;;;;;;8.07;2.47;;;;;;;;;;4909839;28;20055;-66
2023/04/18 00:21:28;;;;;;;6.78;2.67;;;;;;;;;;4912081;28;20520;-68
2023/04/18 00:25:09;;;;;;;8.40;2.38;;;;;;;;;;4913454;28;20503;-66
2023/04/18 00:28:49;;;;;;;7.28;2.10;;;;;;;;;;4914636;28;20416;-66
2023/04/18 00:32:29;;;;;;;7.22;2.20;;;;;;;;;;4914874;28;20051;-68
2023/04/18 00:36:10;;;;;;;6.63;2.10;;;;;;;;;;4912646;28;20062;-69
2023/04/18 00:39:52;;;;;;;5.68;2.00;;;;;;;;;;4914998;28;20170;-66
2023/04/18 00:43:33;;;;;;;7.40;1.92;;;;;;;;;;4923637;28;20423;-68
2023/04/18 00:47:11;;;;;;;4.40;1.80;;;;;;;;;;4916805;28;20083;-69
2023/04/18 00:50:52;;;;;;;11.73;2.10;;;;;;;;;;4914933;28;20075;-71
2023/04/18 00:54:32;;;;;;;4.65;1.90;;;;;;;;;;4914911;28;20124;-68
2023/04/18 00:58:13;;;;;;;3.47;1.70;;;;;;;;;;4914855;28;20048;-72
2023/04/18 01:01:53;;;;;;;5.60;1.50;;;;;;;;;;4915859;28;20175;-68
2023/04/18 01:05:35;;;;;;;7.13;1.70;;;;;;;;;;4913734;28;20047;-66
2023/04/18 01:09:15;;;;;;;5.72;1.80;;;;;;;;;;4914784;28;20035;-67
2023/04/18 01:12:55;;;;;;;5.35;1.80;;;;;;;;;;4920637;28;20054;-66
2023/04/18 01:16:37;;;;;;;6.15;2.45;;;;;;;;;;4914892;28;20353;-68
2023/04/18 01:20:17;;;;;;;5.95;1.60;;;;;;;;;;4915546;28;20055;-66
2023/04/18 01:23:58;;;;;;;5.53;1.70;;;;;;;;;;4910214;28;20051;-66
2023/04/18 01:27:38;;;;;;;5.90;1.60;;;;;;;;;;4913866;28;20213;-67
2023/04/18 01:31:18;;;;;;;5.38;1.63;;;;;;;;;;4913298;29;20054;-67
2023/04/18 01:34:59;;;;;;;4.55;1.95;;;;;;;;;;4913718;28;20053;-66
2023/04/18 01:38:39;;;;;;;8.02;1.73;;;;;;;;;;4912141;28;20074;-67
2023/04/18 01:42:19;;;;;;;6.60;1.80;;;;;;;;;;4917880;29;20094;-66
2023/04/18 01:46:00;;;;;;;5.80;1.90;;;;;;;;;;4909454;28;20055;-68
2023/04/18 01:49:45;;;;;;;7.32;1.90;;;;;;;;;;4912416;28;20052;-67
2023/04/18 01:53:20;;;;;;;6.63;1.60;;;;;;;;;;4912501;28;20089;-65
2023/04/18 01:57:02;;;;;;;4.30;2.08;;;;;;;;;;4912722;28;20132;-66
2023/04/18 02:00:45;;;;;;;7.13;1.92;;;;;;;;;;4909055;28;20071;-68
2023/04/18 02:04:26;;;;;;;6.13;1.98;;;;;;;;;;4910220;28;20097;-67
2023/04/18 02:08:07;;;;;;;10.20;1.90;;;;;;;;;;4911113;29;20112;-68
2023/04/18 02:11:48;;;;;;;9.57;2.00;;;;;;;;;;4918496;28;20545;-69
2023/04/18 02:15:31;;;;;;;8.35;2.00;;;;;;;;;;4910012;29;20114;-68
2023/04/18 02:19:12;;;;;;;7.05;1.80;;;;;;;;;;4909299;28;20048;-66
2023/04/18 02:22:52;;;;;;;4.50;1.83;;;;;;;;;;4912378;29;20064;-67
2023/04/18 02:26:32;;;;;;;7.22;2.20;;;;;;;;;;4912653;28;20047;-68
2023/04/18 02:30:14;;;;;;;7.38;1.88;;;;;;;;;;4911490;29;20052;-69
2023/04/18 02:33:54;;;;;;;12.15;1.77;;;;;;;;;;4910880;28;20064;-67
2023/04/18 02:37:34;;;;;;;9.52;1.75;;;;;;;;;;4912170;29;20131;-66
2023/04/18 02:41:18;;;;;;;10.27;2.10;;;;;;;;;;4911819;28;20594;-70
2023/04/18 02:44:57;;;;;;;5.82;1.90;;;;;;;;;;4911625;28;20055;-67
2023/04/18 02:48:37;;;;;;;4.25;1.50;;;;;;;;;;4910406;28;20067;-67
2023/04/18 02:52:18;;;;;;;6.13;1.65;;;;;;;;;;4909744;28;20082;-67
2023/04/18 02:55:58;;;;;;;7.25;1.90;;;;;;;;;;4910905;28;20043;-67
2023/04/18 02:59:39;;;;;;;12.48;2.30;;;;;;;;;;4911720;28;20048;-66
2023/04/18 03:03:19;;;;;;;8.60;1.88;;;;;;;;;;4910383;29;20055;-66
2023/04/18 03:06:59;;;;;;;7.00;1.88;;;;;;;;;;4909700;28;20059;-67
2023/04/18 03:10:40;;;;;;;5.93;1.55;;;;;;;;;;4917838;28;20067;-66
2023/04/18 03:14:20;;;;;;;5.45;1.60;;;;;;;;;;4911729;28;20116;-68
2023/04/18 03:18:00;;;;;;;11.43;2.30;;;;;;;;;;4911198;28;20055;-68
2023/04/18 03:21:41;;;;;;;10.95;2.08;;;;;;;;;;4909873;28;20055;-67
2023/04/18 03:25:21;;;;;;;6.80;1.65;;;;;;;;;;4911833;28;20059;-66
2023/04/18 03:29:02;;;;;;;10.93;2.08;;;;;;;;;;4914460;28;20054;-68
2023/04/18 03:32:42;;;;;;;9.38;1.98;;;;;;;;;;4914424;28;20062;-67
2023/04/18 03:36:24;;;;;;;9.20;2.40;;;;;;;;;;4913296;28;20079;-67
2023/04/18 03:40:04;;;;;;;8.65;2.13;;;;;;;;;;4913077;29;20048;-67
2023/04/18 03:43:43;;;;;;;10.70;2.17;;;;;;;;;;4920403;28;20060;-67
2023/04/18 03:47:24;;;;;;;7.55;1.90;;;;;;;;;;4913657;28;20427;-68
2023/04/18 03:51:04;;;;;;;8.27;1.85;;;;;;;;;;4914061;28;20055;-67
2023/04/18 03:54:45;;;;;;;7.95;2.10;;;;;;;;;;4913118;28;20051;-67
2023/04/18 03:58:26;;;;;;;6.30;2.10;;;;;;;;;;4909440;28;20051;-68
2023/04/18 04:02:08;;;;;;;7.88;1.80;;;;;;;;;;4908620;28;20404;-68
2023/04/18 04:05:48;;;;;;;7.47;2.00;;;;;;;;;;4910935;28;20047;-67
2023/04/18 04:09:28;;;;;;;6.82;1.80;;;;;;;;;;4914258;29;20043;-68
2023/04/18 04:13:08;;;;;;;8.48;1.80;;;;;;;;;;4929631;28;20035;-68
2023/04/18 04:16:49;;;;;;;8.10;2.13;;;;;;;;;;4920206;29;20048;-68
2023/04/18 04:19:50;;;;;;;16.45;1.92;;;;;;;;;;4907676;28;20048;-65
2023/04/18 04:22:16;;;;;;;8.38;2.25;;;;;;;;;;4912169;29;20591;-66
2023/04/18 04:24:42;;;;;;;8.55;1.85;;;;;;;;;;4915199;28;20661;-65
2023/04/18 04:27:52;;;;;;;7.88;2.10;;;;;;;;;;4912318;28;20470;-66
2023/04/18 04:31:30;;;;;;;5.65;1.70;;;;;;;;;;4913514;29;20060;-68
2023/04/18 04:35:10;;;;;;;9.10;2.17;;;;;;;;;;4910811;28;20051;-67
2023/04/18 04:38:51;;;;;;;9.82;1.98;;;;;;;;;;4912488;28;20384;-67
2023/04/18 04:42:31;;;;;;;7.10;1.70;;;;;;;;;;4913244;29;20044;-67
2023/04/18 04:46:12;;;;;;;6.60;2.17;;;;;;;;;;4913478;28;20479;-67
2023/04/18 04:49:52;;;;;;;9.38;2.30;;;;;;;;;;4909473;28;20102;-71
2023/04/18 04:53:33;;;;;;;11.02;1.83;;;;;;;;;;4912318;28;20058;-71
2023/04/18 04:57:14;;;;;;;10.40;2.00;;;;;;;;;;4912130;28;20071;-69
2023/04/18 05:00:54;;;;;;;10.02;1.98;;;;;;;;;;4910556;28;20059;-68
2023/04/18 05:04:34;;;;;;;19.77;2.90;;;;;;;;;;4908990;28;20107;-69
2023/04/18 05:08:14;;;;;;;12.15;2.42;;;;;;;;;;4911992;29;20824;-69
2023/04/18 05:11:55;;;;;;;10.55;3.20;;;;;;;;;;4907760;28;20062;-67
2023/04/18 05:15:35;;;;;;;8.85;2.40;;;;;;;;;;4911495;28;20111;-66
2023/04/18 05:19:15;;;;;;;9.02;2.58;;;;;;;;;;4905461;28;20139;-67
2023/04/18 05:22:56;;;;;;;7.47;2.55;;;;;;;;;;4907861;28;20147;-69
2023/04/18 05:26:36;;;;;;;8.45;2.80;;;;;;;;;;4911768;28;20058;-68
2023/04/18 05:30:17;;;;;;;7.38;2.83;;;;;;;;;;4906624;29;20062;-66
2023/04/18 05:33:57;;;;;;;7.72;3.17;;;;;;;;;;4910564;28;20051;-68
2023/04/18 05:37:37;;;;;;;8.68;3.45;;;;;;;;;;4910760;28;20186;-67
2023/04/18 05:41:18;;;;;;;20.00;3.38;;;;;;;;;;4911569;28;20067;-67
2023/04/18 05:45:02;;;;;;;7.72;2.67;;;;;;;;;;4912852;29;20087;-66
2023/04/18 05:48:42;;;;;;;14.98;3.10;;;;;;;;;;4908382;28;20063;-66
2023/04/18 05:52:24;;;;;;;16.98;2.97;;;;;;;;;;4910176;28;20059;-67
2023/04/18 05:56:03;;;;;;;15.52;3.33;;;;;;;;;;4907845;28;20614;-69
2023/04/18 05:59:44;;;;;;;24.00;3.13;;;;;;;;;;4909140;28;20055;-67
2023/04/18 06:03:25;;;;;;;14.30;2.97;;;;;;;;;;4908692;28;20056;-71
2023/04/18 06:07:05;;;;;;;10.70;3.22;;;;;;;;;;4911942;28;20058;-68
2023/04/18 06:10:46;;;;;;;16.17;3.60;;;;;;;;;;4910304;28;20051;-67
2023/04/18 06:14:26;;;;;;;16.77;3.65;;;;;;;;;;4909172;28;20500;-68
2023/04/18 06:18:06;;;;;;;14.27;3.85;;;;;;;;;;4910803;29;20149;-68
2023/04/18 06:21:47;;;;;;;13.10;3.47;;;;;;;;;;4908217;29;20056;-67
2023/04/18 06:25:27;;;;;;;12.77;3.60;;;;;;;;;;4910077;29;20055;-69
2023/04/18 06:29:08;;;;;;;18.45;4.70;;;;;;;;;;4912207;28;20400;-71
2023/04/18 06:32:49;;;;;;;16.13;4.40;;;;;;;;;;4911985;28;20507;-69
2023/04/18 06:36:30;;;;;;;18.15;4.25;;;;;;;;;;4913092;28;20051;-70
2023/04/18 06:40:12;;;;;;;18.88;3.80;;;;;;;;;;4913014;29;21994;-71
2023/04/18 06:43:52;;;;;;;13.98;3.90;;;;;;;;;;4910971;29;20067;-68
2023/04/18 06:47:32;;;;;;;21.35;4.55;;;;;;;;;;4912188;28;20645;-71
2023/04/18 06:51:13;;;;;;;10.48;3.65;;;;;;;;;;4916276;28;21832;-69
2023/04/18 06:54:53;;;;;;;13.02;3.15;;;;;;;;;;4912972;28;20107;-69
2023/04/18 06:58:33;;;;;;;13.18;3.13;;;;;;;;;;4913845;28;20140;-70
2023/04/18 07:02:14;;;;;;;14.10;3.40;;;;;;;;;;4912461;28;20083;-71
2023/04/18 07:05:54;;;;;;;16.25;3.30;;;;;;;;;;4915232;28;20110;-70
2023/04/18 07:08:58;;;;;;;13.95;4.00;;;;;;;;;;4913729;28;20059;-68
2023/04/18 07:12:04;;;;;;;19.10;4.68;;;;;;;;;;4914586;28;20409;-71
2023/04/18 07:15:45;;;;;;;20.55;3.88;;;;;;;;;;4914966;28;20083;-71
2023/04/18 07:19:25;;;;;;;19.38;5.85;;;;;;;;;;4914726;28;20465;-70
2023/04/18 07:23:09;;;;;;;16.83;5.28;;;;;;;;;;4915009;28;20420;-69
2023/04/18 07:26:47;;;;;;;21.30;5.53;;;;;;;;;;4913738;28;20066;-69
2023/04/18 07:30:28;;;;;;;13.63;4.30;;;;;;;;;;4913770;28;20409;-69
2023/04/18 07:34:08;;;;;;;17.15;5.20;;;;;;;;;;4915001;28;20151;-69
2023/04/18 07:37:48;;;;;;;19.95;4.60;;;;;;;;;;4913209;28;20276;-69
2023/04/18 07:41:35;;;;;;;28.83;5.40;;;;;;;;;;4914738;28;20571;-69
2023/04/18 07:45:16;;;;;;;19.65;4.28;;;;;;;;;;4915311;28;20106;-72
2023/04/18 07:48:56;;;;;;;17.88;4.32;;;;;;;;;;4913956;28;20625;-69
2023/04/18 07:52:36;;;;;;;13.45;3.92;;;;;;;;;;4913886;28;20061;-69
2023/04/18 07:56:17;;;;;;;19.77;3.00;;;;;;;;;;4914361;28;20062;-70
2023/04/18 07:59:58;;;;;;;14.27;3.38;;;;;;;;;;4911307;28;20791;-68
2023/04/18 08:03:38;;;;;;;13.35;2.92;;;;;;;;;;4910683;28;20051;-69
2023/04/18 08:07:18;;;;;;;19.48;2.88;;;;;;;;;;4913400;28;20060;-71
2023/04/18 08:10:59;;;;;;;14.73;2.83;;;;;;;;;;4911081;28;20432;-69
2023/04/18 08:14:40;;;;;;;16.45;2.83;;;;;;;;;;4924230;28;20059;-70
2023/04/18 08:18:19;;;;;;;17.65;3.20;;;;;;;;;;4913425;28;20079;-69
2023/04/18 08:22:00;;;;;;;11.75;2.40;;;;;;;;;;4914505;28;20264;-69
2023/04/18 08:25:40;;;;;;;14.95;2.55;;;;;;;;;;4917567;28;20063;-69
2023/04/18 08:29:20;;;;;;;7.30;2.40;;;;;;;;;;4918097;28;20600;-71
2023/04/18 08:33:02;;;;;;;8.73;2.22;;;;;;;;;;4913880;28;20094;-69
2023/04/18 08:36:04;;;;;;;15.52;2.60;;;;;;;;;;4913023;28;20055;-70
2023/04/18 08:38:32;;;;;;;18.05;2.60;;;;;;;;;;4911792;28;20477;-69
2023/04/18 08:40:58;;;;;;;8.57;1.90;;;;;;;;;;4913473;28;20059;-70
2023/04/18 08:44:04;;;;;;;7.28;2.20;;;;;;;;;;4912940;28;20067;-70
2023/04/18 08:47:08;;;;;;;8.68;1.80;;;;;;;;;;4916097;28;20070;-67
2023/04/18 08:49:35;;;;;;;8.00;2.08;;;;;;;;;;4913949;28;20673;-70
2023/04/18 08:52:03;;;;;;;12.80;2.08;;;;;;;;;;4913852;28;20048;-72
2023/04/18 08:54:30;;;;;;;13.35;2.50;;;;;;;;;;4913443;28;20411;-71
2023/04/18 08:57:08;;;;;;;15.18;2.20;;;;;;;;;;4913212;28;20048;-69
2023/04/18 08:59:34;;;;;;;8.50;2.00;;;;;;;;;;4908733;29;20048;-72
2023/04/18 09:02:02;;;;;;;8.77;2.10;;;;;;;;;;4904187;29;20047;-70
2023/04/18 09:04:43;;;;;;;13.27;2.88;;;;;;;;;;4884835;29;20130;-72
2023/04/18 09:07:12;;;;;;;5.65;1.90;;;;;;;;;;4910988;28;20099;-69
2023/04/18 09:09:58;;;;;;;9.30;2.33;;;;;;;;;;4917613;28;20395;-72
2023/04/18 09:12:28;;;;;;;9.88;2.03;;;;;;;;;;4907974;28;21252;-71
2023/04/18 09:14:58;;;;;;;11.88;2.13;;;;;;;;;;4911446;28;20052;-69
2023/04/18 09:17:42;;;;;;;11.75;2.28;;;;;;;;;;4914811;28;20568;-72
2023/04/18 09:20:10;;;;;;;18.92;2.45;;;;;;;;;;4911289;28;20060;-71
2023/04/18 09:22:50;;;;;;;10.90;2.20;;;;;;;;;;4912122;28;20121;-73
2023/04/18 09:25:33;;;;;;;11.02;2.00;;;;;;;;;;4911178;28;20059;-71
2023/04/18 09:28:03;;;;;;;9.00;2.15;;;;;;;;;;4914776;28;20495;-73
2023/04/18 09:30:38;;;;;;;11.07;2.55;;;;;;;;;;4910036;28;20040;-68
2023/04/18 09:33:08;;;;;;;;;;;;;;;;;;4911321;28;20067;-71
2023/04/18 09:35:37;;;;;;;13.60;2.55;;;;;;;;;;4909430;28;19968;-69
2023/04/18 09:38:03;;;;;;;9.30;2.00;;;;;;;;;;4922991;28;20043;-72
2023/04/18 09:40:31;;;;;;;7.47;2.05;;;;;;;;;;4926997;28;20074;-71
2023/04/18 09:43:38;;;;;;;7.22;1.80;;;;;;;;;;4912128;28;20055;-71
2023/04/18 09:47:18;;;;;;;6.88;1.80;;;;;;;;;;4913020;28;20103;-72
2023/04/18 09:50:58;;;;;;;10.85;2.10;;;;;;;;;;4913067;28;20080;-72
2023/04/18 09:54:39;;;;;;;7.72;1.60;;;;;;;;;;4913178;28;20059;-70
2023/04/18 09:58:21;;;;;;;9.18;2.25;;;;;;;;;;4910709;28;20063;-70
2023/04/18 10:02:01;;;;;;;7.90;1.83;;;;;;;;;;4910191;28;20146;-70
2023/04/18 10:05:43;;;;;;;13.20;2.70;;;;;;;;;;4908732;28;20055;-70
2023/04/18 10:09:23;;;;;;;8.75;2.17;;;;;;;;;;4909538;28;20052;-70
2023/04/18 10:13:04;;;;;;;14.50;2.70;;;;;;;;;;4916807;28;20159;-74
2023/04/18 10:16:46;;;;;;;6.63;1.88;;;;;;;;;;4910135;28;20052;-72
2023/04/18 10:20:25;;;;;;;9.05;2.10;;;;;;;;;;4908709;28;20075;-72
2023/04/18 10:23:55;;;;;;;11.55;2.15;;;;;;;;;;4909936;28;20581;-71
2023/04/18 10:27:36;;;;;;;11.18;2.25;;;;;;;;;;4911115;28;20062;-70
2023/04/18 10:30:40;;;;;;;10.30;2.75;;;;;;;;;;4909180;28;20077;-70
2023/04/18 10:34:20;;;;;;;11.27;2.30;;;;;;;;;;4907155;28;20089;-69
2023/04/18 10:38:09;;;;;;;11.52;2.92;;;;;;;;;;4909285;28;20055;-70
2023/04/18 10:41:59;;;;;;;6.13;1.90;;;;;;;;;;4910539;28;20043;-71
2023/04/18 10:45:38;;;;;;;13.75;2.70;;;;;;;;;;4912127;28;20051;-73
2023/04/18 10:49:11;;;;;;;5.65;1.60;;;;;;;;;;4910181;28;20056;-70
2023/04/18 10:52:52;;;;;;;6.70;1.90;;;;;;;;;;4907794;28;20111;-71
2023/04/18 10:56:34;;;;;;;6.95;2.22;;;;;;;;;;4909744;28;21083;-71
2023/04/18 11:00:14;;;;;;;15.05;2.00;;;;;;;;;;4910847;28;20063;-74
2023/04/18 11:03:54;;;;;;;13.30;2.08;;;;;;;;;;4910682;28;20052;-72
2023/04/18 11:07:37;;;;;;;11.30;2.00;;;;;;;;;;4910468;28;20086;-73
2023/04/18 11:11:17;;;;;;;9.85;2.25;;;;;;;;;;4910076;28;20496;-74
2023/04/18 11:14:58;;;;;;;18.27;2.60;;;;;;;;;;4912515;28;20060;-71
2023/04/18 11:18:41;;;;;;;15.45;2.58;;;;;;;;;;4905169;28;20752;-72
2023/04/18 11:22:22;;;;;;;10.80;2.00;;;;;;;;;;4909478;28;20059;-73
2023/04/18 11:26:03;;;;;;;11.93;1.90;;;;;;;;;;4909353;28;20103;-72
2023/04/18 11:29:45;;;;;;;7.70;2.08;;;;;;;;;;4909717;28;20555;-71
2023/04/18 11:33:26;;;;;;;9.82;1.92;;;;;;;;;;4909877;28;20163;-74
2023/04/18 11:37:09;;;;;;;7.55;1.98;;;;;;;;;;4909322;29;20043;-71
2023/04/18 11:40:49;;;;;;;6.65;2.30;;;;;;;;;;4910888;28;20154;-70
2023/04/18 11:44:30;;;;;;;9.45;2.20;;;;;;;;;;4912446;28;20064;-70
2023/04/18 11:48:10;;;;;;;12.32;2.30;;;;;;;;;;4913486;28;20044;-70
2023/04/18 11:52:12;;;;;;;11.32;2.35;;;;;;;;;;4914615;28;20052;-72
2023/04/18 11:55:58;;;;;;;9.32;2.67;;;;;;;;;;4914815;28;20062;-70
2023/04/18 11:59:38;;;;;;;12.20;2.35;;;;;;;;;;4914392;28;20166;-73
2023/04/18 12:03:27;;;;;;;5.53;1.77;;;;;;;;;;4913572;28;20261;-72
2023/04/18 12:06:46;;;;;;;8.63;2.00;;;;;;;;;;4912977;28;20059;-72
2023/04/18 12:10:21;;;;;;;10.63;2.00;;;;;;;;;;4916683;28;20058;-71
2023/04/18 12:14:04;;;;;;;19.35;2.60;;;;;;;;;;4911916;28;20091;-71
2023/04/18 12:17:44;;;;;;;11.93;2.80;;;;;;;;;;4920127;28;20046;-73
2023/04/18 12:21:44;;;;;;;5.97;2.05;;;;;;;;;;4917594;28;20055;-74
2023/04/18 12:25:40;;;;;;;10.55;2.20;;;;;;;;;;4912025;28;20071;-72
2023/04/18 12:29:01;;;;;;;;;;;;;;;;;;4913411;28;20056;-71
2023/04/18 12:32:43;;;;;;;6.40;2.20;;;;;;;;;;4915062;28;19974;-72
2023/04/18 12:36:22;;;;;;;9.13;2.10;;;;;;;;;;4916044;28;20208;-72
2023/04/18 12:40:03;;;;;;;9.60;2.33;;;;;;;;;;4914541;28;20039;-71
2023/04/18 12:43:45;;;;;;;8.65;2.17;;;;;;;;;;4917011;28;20698;-73
2023/04/18 12:47:25;;;;;;;15.50;2.30;;;;;;;;;;4916952;28;20563;-71
2023/04/18 12:51:05;;;;;;;8.88;1.80;;;;;;;;;;4917301;28;20057;-71
2023/04/18 12:54:46;;;;;;;7.80;1.95;;;;;;;;;;4908275;28;20052;-71
2023/04/18 12:58:26;;;;;;;5.90;1.63;;;;;;;;;;4912594;28;20056;-74
2023/04/18 13:02:06;;;;;;;8.88;1.70;;;;;;;;;;4913992;28;20414;-72
2023/04/18 13:05:47;;;;;;;7.65;1.92;;;;;;;;;;4911797;28;20048;-72
2023/04/18 13:09:27;;;;;;;5.68;1.60;;;;;;;;;;4914792;28;20044;-72
2023/04/18 13:13:07;;;;;;;7.90;2.13;;;;;;;;;;4918547;28;20665;-69
2023/04/18 13:16:48;;;;;;;5.88;1.50;;;;;;;;;;4912416;28;20054;-70
2023/04/18 13:20:28;;;;;;;9.82;2.00;;;;;;;;;;4912600;28;20130;-71
2023/04/18 13:24:10;;;;;;;8.32;1.73;;;;;;;;;;4911650;28;20083;-69
2023/04/18 13:27:51;;;;;;;8.07;1.88;;;;;;;;;;4911279;28;20417;-72
2023/04/18 13:31:31;;;;;;;5.40;1.75;;;;;;;;;;4912887;28;20624;-74
2023/04/18 13:35:14;;;;;;;6.10;1.65;;;;;;;;;;4909269;28;20179;-70
2023/04/18 13:38:54;;;;;;;10.77;2.33;;;;;;;;;;4912177;28;20114;-73
2023/04/18 13:42:35;;;;;;;9.68;1.83;;;;;;;;;;4910495;28;20050;-73
2023/04/18 13:46:17;;;;;;;8.55;2.38;;;;;;;;;;4911321;28;20510;-70
2023/04/18 13:49:58;;;;;;;11.32;2.28;;;;;;;;;;4910309;28;20086;-70
2023/04/18 13:53:39;;;;;;;16.20;2.08;;;;;;;;;;4910817;28;20051;-71
2023/04/18 13:57:19;;;;;;;8.15;2.15;;;;;;;;;;4912317;28;20086;-73
2023/04/18 14:01:00;;;;;;;9.73;1.98;;;;;;;;;;4912483;28;20062;-71
2023/04/18 14:04:40;;;;;;;7.55;1.85;;;;;;;;;;4911695;28;20059;-70
2023/04/18 14:08:21;;;;;;;8.00;2.15;;;;;;;;;;4912109;28;20063;-73
2023/04/18 14:12:01;;;;;;;11.88;2.00;;;;;;;;;;4923971;28;20138;-72
2023/04/18 14:15:42;;;;;;;6.90;1.73;;;;;;;;;;4912719;28;20140;-70
2023/04/18 14:19:22;;;;;;;11.30;1.70;;;;;;;;;;4910785;28;20538;-70
2023/04/18 14:23:04;;;;;;;11.50;2.17;;;;;;;;;;4907422;28;20059;-72
2023/04/18 14:26:44;;;;;;;7.75;1.92;;;;;;;;;;4907351;28;20500;-73
2023/04/18 14:30:25;;;;;;;9.57;2.33;;;;;;;;;;4912343;28;20040;-70
2023/04/18 14:34:07;;;;;;;12.20;2.15;;;;;;;;;;4908832;28;20066;-72
2023/04/18 14:37:45;;;;;;;10.18;2.10;;;;;;;;;;4909849;28;20143;-70
2023/04/18 14:41:29;;;;;;;11.60;2.08;;;;;;;;;;4912774;28;20047;-71
2023/04/18 14:45:10;;;;;;;17.90;3.03;;;;;;;;;;4913287;28;20055;-70
2023/04/18 14:48:49;;;;;;;12.98;2.30;;;;;;;;;;4911877;28;20055;-73
2023/04/18 14:52:30;;;;;;;3.63;1.90;;;;;;;;;;4917141;28;20052;-72
2023/04/18 14:56:10;;;;;;;14.20;2.83;;;;;;;;;;4912644;28;20140;-73
2023/04/18 14:59:53;;;;;;;7.75;1.70;;;;;;;;;;4912082;28;20059;-71
2023/04/18 15:03:34;;;;;;;17.92;2.60;;;;;;;;;;4909903;29;20051;-71
2023/04/18 15:07:15;;;;;;;8.77;2.13;;;;;;;;;;4911861;28;20056;-72
2023/04/18 15:10:56;;;;;;;10.13;2.00;;;;;;;;;;4910954;28;20250;-73
2023/04/18 15:14:37;;;;;;;10.13;2.97;;;;;;;;;;4929949;28;20405;-75
2023/04/18 15:18:17;;;;;;;5.85;2.10;;;;;;;;;;4926082;29;20062;-75
2023/04/18 15:21:57;;;;;;;25.20;3.75;;;;;;;;;;4913367;28;20112;-74
2023/04/18 15:25:38;;;;;;;13.80;2.13;;;;;;;;;;4913710;28;20086;-74
2023/04/18 15:29:20;;;;;;;14.95;2.70;;;;;;;;;;4913687;28;20063;-72
2023/04/18 15:33:01;;;;;;;13.50;2.45;;;;;;;;;;4919563;28;20448;-77
2023/04/18 15:36:41;;;;;;;6.75;2.10;;;;;;;;;;4920802;28;20086;-78
2023/04/18 15:40:21;;;;;;;15.93;2.17;;;;;;;;;;4922431;28;20075;-75
2023/04/18 15:44:02;;;;;;;9.07;2.10;;;;;;;;;;4916197;28;20170;-78
2023/04/18 15:47:42;;;;;;;9.90;2.28;;;;;;;;;;4918337;28;20107;-77
2023/04/18 15:51:26;;;;;;;10.50;2.28;;;;;;;;;;4914729;28;20647;-76
2023/04/18 15:55:06;;;;;;;12.32;2.22;;;;;;;;;;4918249;28;20066;-73
2023/04/18 15:58:46;;;;;;;6.07;2.00;;;;;;;;;;4913768;28;20488;-71
2023/04/18 16:02:26;;;;;;;10.15;2.38;;;;;;;;;;4912295;28;20183;-72
2023/04/18 16:06:10;;;;;;;12.13;2.10;;;;;;;;;;4910323;28;20482;-71
2023/04/18 16:09:50;;;;;;;11.27;2.50;;;;;;;;;;4917767;28;20084;-72
2023/04/18 16:13:30;;;;;;;11.32;2.22;;;;;;;;;;4918324;28;20106;-74
2023/04/18 16:17:11;;;;;;;8.00;2.08;;;;;;;;;;4915122;28;20048;-74
2023/04/18 16:20:51;;;;;;;18.20;3.47;;;;;;;;;;4914089;28;20919;-72
2023/04/18 16:24:34;;;;;;;8.13;1.70;;;;;;;;;;4912434;28;20599;-72
2023/04/18 16:28:15;;;;;;;9.07;2.50;;;;;;;;;;4911193;29;22023;-74
2023/04/18 16:31:55;;;;;;;8.40;2.63;;;;;;;;;;4911655;28;20747;-71
2023/04/18 16:35:35;;;;;;;12.50;2.13;;;;;;;;;;4912637;28;20078;-72
2023/04/18 16:39:18;;;;;;;8.20;2.10;;;;;;;;;;4911993;28;20626;-72
2023/04/18 16:42:57;;;;;;;9.98;2.25;;;;;;;;;;4911834;28;20057;-71
2023/04/18 16:46:38;;;;;;;11.07;2.15;;;;;;;;;;4910897;28;20105;-71
2023/04/18 16:50:18;;;;;;;11.50;1.92;;;;;;;;;;4912478;28;20098;-72
2023/04/18 16:53:58;;;;;;;6.45;1.65;;;;;;;;;;4911986;28;20048;-73
2023/04/18 16:57:39;;;;;;;8.52;2.40;;;;;;;;;;4910128;28;20059;-72
2023/04/18 17:01:22;;;;;;;8.10;2.08;;;;;;;;;;4912508;28;20077;-73
2023/04/18 17:05:06;;;;;;;3.92;1.48;;;;;;;;;;4913997;28;20056;-71
2023/04/18 17:08:47;;;;;;;6.45;2.08;;;;;;;;;;4915008;28;20102;-73
2023/04/18 17:12:26;;;;;;;9.68;2.17;;;;;;;;;;4928712;28;20155;-72
2023/04/18 17:16:09;;;;;;;7.22;2.03;;;;;;;;;;4911837;28;20380;-72
2023/04/18 17:19:50;;;;;;;5.88;1.77;;;;;;;;;;4910672;28;20058;-70
2023/04/18 17:23:32;;;;;;;8.70;1.90;;;;;;;;;;4912080;28;20063;-74
2023/04/18 17:27:12;;;;;;;6.88;1.77;;;;;;;;;;4911032;28;20590;-73
2023/04/18 17:30:56;;;;;;;8.40;1.70;;;;;;;;;;4910684;28;20047;-73
2023/04/18 17:34:34;;;;;;;5.63;1.80;;;;;;;;;;4912301;28;20653;-78
2023/04/18 17:38:18;;;;;;;4.85;1.75;;;;;;;;;;4907000;29;20055;-73
2023/04/18 17:42:00;;;;;;;5.60;2.00;;;;;;;;;;4910846;28;20170;-72
2023/04/18 17:45:39;;;;;;;13.77;2.03;;;;;;;;;;4913157;28;20055;-72
2023/04/18 17:49:20;;;;;;;8.27;1.80;;;;;;;;;;4911322;28;20111;-72
2023/04/18 17:53:02;;;;;;;8.55;2.08;;;;;;;;;;4910687;29;20154;-73
2023/04/18 17:56:44;;;;;;;9.60;2.05;;;;;;;;;;4908219;28;20062;-71
2023/04/18 18:00:23;;;;;;;9.27;2.20;;;;;;;;;;4910277;29;20768;-71
2023/04/18 18:04:03;;;;;;;10.15;2.78;;;;;;;;;;4909869;28;20051;-71
2023/04/18 18:07:55;;;;;;;8.13;2.00;;;;;;;;;;4906899;28;20107;-70
2023/04/18 18:11:38;;;;;;;16.13;2.08;;;;;;;;;;4920311;28;20522;-69
2023/04/18 18:15:18;;;;;;;7.97;1.95;;;;;;;;;;4915885;28;20529;-70
2023/04/18 18:18:58;;;;;;;6.93;2.10;;;;;;;;;;4905935;28;20043;-73
2023/04/18 18:22:38;;;;;;;10.73;2.58;;;;;;;;;;4910670;28;20040;-70
2023/04/18 18:26:21;;;;;;;8.40;2.15;;;;;;;;;;4912024;28;20127;-75
2023/04/18 18:30:01;;;;;;;9.45;3.97;;;;;;;;;;4909147;28;21846;-72
2023/04/18 18:33:42;;;;;;;9.35;2.30;;;;;;;;;;4912116;28;20051;-72
2023/04/18 18:37:24;;;;;;;11.60;3.10;;;;;;;;;;4912085;28;20622;-71
2023/04/18 18:41:04;;;;;;;8.48;2.13;;;;;;;;;;4908914;28;20051;-72
2023/04/18 18:44:20;;;;;;;6.45;2.13;;;;;;;;;;4909180;28;20082;-71
2023/04/18 18:46:47;;;;;;;6.25;2.42;;;;;;;;;;4910467;28;20051;-71
2023/04/18 18:49:53;;;;;;;11.30;2.65;;;;;;;;;;4920353;28;20142;-71
2023/04/18 18:53:34;;;;;;;9.57;3.88;;;;;;;;;;4908909;28;20040;-72
2023/04/18 18:57:14;;;;;;;6.70;2.20;;;;;;;;;;4908627;28;20063;-71
2023/04/18 19:00:55;;;;;;;11.70;2.42;;;;;;;;;;4911247;28;20067;-72
2023/04/18 19:04:35;;;;;;;9.75;2.15;;;;;;;;;;4911318;29;20051;-71
2023/04/18 19:08:16;;;;;;;10.40;2.85;;;;;;;;;;4911637;28;20052;-71
2023/04/18 19:12:00;;;;;;;6.82;2.20;;;;;;;;;;4915738;28;20062;-70
2023/04/18 19:15:41;;;;;;;10.75;2.53;;;;;;;;;;4914495;28;20063;-71
2023/04/18 19:19:21;;;;;;;7.40;2.05;;;;;;;;;;4911123;28;20058;-71
2023/04/18 19:23:02;;;;;;;7.25;2.83;;;;;;;;;;4911392;28;20056;-71
2023/04/18 19:26:43;;;;;;;9.90;2.53;;;;;;;;;;4912452;28;22550;-72
2023/04/18 19:30:24;;;;;;;8.65;2.55;;;;;;;;;;4913363;28;20050;-70
2023/04/18 19:34:05;;;;;;;9.52;2.20;;;;;;;;;;4903835;28;20051;-71
2023/04/18 19:37:47;;;;;;;7.30;2.70;;;;;;;;;;4908989;28;20880;-70
2023/04/18 19:41:27;;;;;;;7.93;2.10;;;;;;;;;;4907763;28;20802;-71
2023/04/18 19:45:07;;;;;;;10.10;2.83;;;;;;;;;;4904198;29;20166;-70
2023/04/18 19:48:48;;;;;;;10.45;2.58;;;;;;;;;;4908441;29;20062;-72
2023/04/18 19:52:28;;;;;;;5.15;2.20;;;;;;;;;;4907017;28;20052;-72
2023/04/18 19:56:10;;;;;;;5.90;2.17;;;;;;;;;;4911645;28;20062;-70
2023/04/18 19:59:51;;;;;;;7.10;2.88;;;;;;;;;;4912609;28;20051;-70
2023/04/18 20:03:32;;;;;;;8.30;2.30;;;;;;;;;;4909662;28;20441;-71
2023/04/18 20:07:12;;;;;;;7.10;2.63;;;;;;;;;;4911234;28;20048;-70
2023/04/18 20:10:55;;;;;;;13.18;2.17;;;;;;;;;;4915183;28;20051;-70
2023/04/18 20:14:36;;;;;;;6.22;1.88;;;;;;;;;;4919514;28;20167;-70
2023/04/18 20:18:16;;;;;;;10.48;2.70;;;;;;;;;;4909892;29;20052;-71
2023/04/18 20:21:57;;;;;;;8.27;1.77;;;;;;;;;;4913754;28;20334;-71
2023/04/18 20:25:38;;;;;;;8.57;2.28;;;;;;;;;;4909546;28;20123;-69
2023/04/18 20:29:19;;;;;;;11.85;2.38;;;;;;;;;;4912088;29;20442;-69
2023/04/18 20:33:02;;;;;;;6.13;2.10;;;;;;;;;;4912861;28;20048;-69
2023/04/18 20:36:42;;;;;;;11.95;2.08;;;;;;;;;;4911354;29;20056;-70
2023/04/18 20:40:22;;;;;;;9.32;2.10;;;;;;;;;;4912488;28;20466;-69
2023/04/18 20:44:05;;;;;;;5.93;1.95;;;;;;;;;;4910755;28;20060;-69
2023/04/18 20:47:44;;;;;;;6.05;1.75;;;;;;;;;;4910102;28;20055;-69
2023/04/18 20:51:28;;;;;;;11.75;4.68;;;;;;;;;;4914149;28;20424;-69
2023/04/18 20:55:07;;;;;;;6.35;1.92;;;;;;;;;;4914743;28;20090;-71
2023/04/18 20:58:49;;;;;;;7.45;1.88;;;;;;;;;;4913628;28;20051;-69
2023/04/18 21:02:31;;;;;;;6.07;1.90;;;;;;;;;;4912094;28;20103;-70
2023/04/18 21:06:11;;;;;;;10.93;2.05;;;;;;;;;;4913066;29;20055;-70
2023/04/18 21:09:54;;;;;;;4.28;1.95;;;;;;;;;;4918959;28;20059;-70
2023/04/18 21:13:37;;;;;;;6.13;2.05;;;;;;;;;;4926062;28;20083;-70
2023/04/18 21:17:17;;;;;;;7.07;1.85;;;;;;;;;;4913142;28;20059;-69
2023/04/18 21:20:59;;;;;;;4.70;1.85;;;;;;;;;;4909576;28;20395;-70